createdAt,value
2023-12-09T00:02:07.335Z,98542.03
2023-12-09T00:04:34.782Z,98536.75
2023-12-09T00:07:02.033Z,98529.81
2023-12-09T00:09:30.861Z,98529.81
2023-12-09T00:11:58.146Z,98539.41
2023-12-09T00:14:25.503Z,98526.97
2023-12-09T00:16:52.834Z,98526.16
2023-12-09T00:19:20.639Z,98524.53
2023-12-09T00:21:47.886Z,98532.28
2023-12-09T00:24:15.295Z,98524.53
2023-12-09T00:26:42.342Z,98531.44
2023-12-09T00:29:09.788Z,98525.34
2023-12-09T00:31:36.910Z,98533.44
2023-12-09T00:34:04.355Z,98535.09
2023-12-09T00:36:31.605Z,98524.53
2023-12-09T00:38:59.145Z,98529.16
2023-12-09T00:41:26.283Z,98533.44
2023-12-09T00:43:53.547Z,98541.56
2023-12-09T00:46:22.456Z,98532.94
2023-12-09T00:48:50.277Z,98540.72
2023-12-09T00:51:17.614Z,98535.44
2023-12-09T00:53:45.006Z,98535.44
2023-12-09T00:56:14.482Z,98531.16
2023-12-09T00:58:42.345Z,98530.16
2023-12-09T01:01:09.461Z,98531.81
2023-12-09T01:03:36.944Z,98530.97
2023-12-09T01:06:04.313Z,98530.16
2023-12-09T01:08:31.748Z,98531.97
2023-12-09T01:10:58.864Z,98533.81
2023-12-09T01:13:26.344Z,98530.16
2023-12-09T01:15:53.436Z,98540.72
2023-12-09T01:18:20.919Z,98541.75
2023-12-09T01:20:48.017Z,98547.03
2023-12-09T01:23:15.416Z,98546.19
2023-12-09T01:25:42.500Z,98534.78
2023-12-09T01:28:09.818Z,98553.31
2023-12-09T01:30:36.901Z,98540.09
2023-12-09T01:33:04.474Z,98549.69
2023-12-09T01:35:31.692Z,98548.03
2023-12-09T01:37:59.193Z,98550.66
2023-12-09T01:40:26.276Z,98543.53
2023-12-09T01:42:54.797Z,98556.16
2023-12-09T01:45:21.909Z,98551.69
2023-12-09T01:47:49.689Z,98552.34
2023-12-09T01:50:17.256Z,98560.28
2023-12-09T01:52:44.630Z,98553.50
2023-12-09T01:55:12.471Z,98551.69
2023-12-09T01:57:40.259Z,98551.69
2023-12-09T02:00:08.161Z,98553.50
2023-12-09T02:02:35.712Z,98555.31
2023-12-09T02:05:03.787Z,98556.97
2023-12-09T02:07:31.460Z,98551.03
2023-12-09T02:09:58.693Z,98555.31
2023-12-09T02:12:32.270Z,98550.03
2023-12-09T02:15:19.872Z,98547.38
2023-12-09T02:17:53.502Z,98549.19
2023-12-09T02:20:20.995Z,98549.19
2023-12-09T02:22:48.521Z,98543.09
2023-12-09T02:25:16.118Z,98542.28
2023-12-09T02:27:48.777Z,98548.38
2023-12-09T02:30:42.366Z,98547.56
2023-12-09T02:33:12.049Z,98545.91
2023-12-09T02:35:41.541Z,98546.72
2023-12-09T02:38:09.414Z,98545.91
2023-12-09T02:40:36.721Z,98550.38
2023-12-09T02:43:05.038Z,98549.56
2023-12-09T02:45:32.205Z,98545.91
2023-12-09T02:47:59.841Z,98545.09
2023-12-09T02:50:27.057Z,98540.75
2023-12-09T02:52:54.343Z,98547.72
2023-12-09T02:55:21.570Z,98549.56
2023-12-09T02:57:48.998Z,98543.41
2023-12-09T03:00:16.157Z,98548.72
2023-12-09T03:02:44.089Z,98555.66
2023-12-09T03:05:11.253Z,98555.00
2023-12-09T03:07:38.628Z,98554.00
2023-12-09T03:10:05.881Z,98548.72
2023-12-09T03:12:33.392Z,98549.72
2023-12-09T03:15:00.511Z,98545.25
2023-12-09T03:17:28.125Z,98546.06
2023-12-09T03:19:55.173Z,98544.41
2023-12-09T03:22:22.544Z,98549.06
2023-12-09T03:24:49.626Z,98552.38
2023-12-09T03:27:17.021Z,98551.34
2023-12-09T03:29:44.417Z,98540.09
2023-12-09T03:32:11.734Z,98534.81
2023-12-09T03:34:38.913Z,98546.25
2023-12-09T03:37:06.465Z,98541.78
2023-12-09T03:39:33.537Z,98527.53
2023-12-09T03:42:00.880Z,98530.38
2023-12-09T03:44:28.012Z,98534.81
2023-12-09T03:46:55.329Z,98540.97
2023-12-09T03:49:22.517Z,98540.09
2023-12-09T03:51:49.957Z,98539.28
2023-12-09T03:54:17.548Z,98534.00
2023-12-09T03:56:45.779Z,98541.94
2023-12-09T03:59:12.913Z,98535.81
2023-12-09T04:01:49.875Z,98531.53
2023-12-09T04:04:17.619Z,98540.09
2023-12-09T04:06:45.126Z,98546.41
2023-12-09T04:09:12.296Z,98535.66
2023-12-09T04:11:39.741Z,98538.47
2023-12-09T04:14:06.917Z,98537.66
2023-12-09T04:16:34.245Z,98533.19
2023-12-09T04:19:01.489Z,98539.28
2023-12-09T04:21:28.952Z,98536.47
2023-12-09T04:23:56.095Z,98547.06
2023-12-09T04:26:24.729Z,98541.78
2023-12-09T04:28:51.792Z,98547.06
2023-12-09T04:31:19.148Z,98537.47
2023-12-09T04:33:46.378Z,98541.78
2023-12-09T04:36:14.871Z,98540.97
2023-12-09T04:38:42.306Z,98542.59
2023-12-09T04:41:09.621Z,98541.78
2023-12-09T04:43:36.668Z,98542.75
2023-12-09T04:46:04.451Z,98544.41
2023-12-09T04:48:31.980Z,98543.78
2023-12-09T04:50:59.437Z,98544.59
2023-12-09T04:53:26.503Z,98537.31
2023-12-09T04:55:53.822Z,98544.59
2023-12-09T04:58:20.972Z,98525.06
2023-12-09T05:00:48.322Z,98534.81
2023-12-09T05:03:15.480Z,98534.81
2023-12-09T05:05:43.521Z,98538.47
2023-12-09T05:08:10.816Z,98537.66
2023-12-09T05:10:38.159Z,98545.41
2023-12-09T05:13:05.198Z,98534.00
2023-12-09T05:15:33.645Z,98536.84
2023-12-09T05:18:01.261Z,98535.81
2023-12-09T05:20:28.696Z,98537.66
2023-12-09T05:22:56.068Z,98529.88
2023-12-09T05:25:23.367Z,98524.59
2023-12-09T05:27:50.430Z,98529.88
2023-12-09T05:30:17.841Z,98530.69
2023-12-09T05:32:45.050Z,98535.16
2023-12-09T05:35:12.493Z,98535.16
2023-12-09T05:37:40.097Z,98540.47
2023-12-09T05:40:07.997Z,98542.13
2023-12-09T05:42:35.149Z,98535.16
2023-12-09T05:45:02.631Z,98544.78
2023-12-09T05:47:29.724Z,98533.53
2023-12-09T05:49:57.093Z,98535.16
2023-12-09T05:52:24.458Z,98528.25
2023-12-09T05:54:52.017Z,98535.16
2023-12-09T05:57:19.400Z,98529.88
2023-12-09T05:59:46.724Z,98529.06
2023-12-09T06:02:13.740Z,98532.34
2023-12-09T06:04:41.488Z,98523.59
2023-12-09T06:07:08.669Z,98521.78
2023-12-09T06:09:36.036Z,98515.66
2023-12-09T06:12:03.204Z,98532.53
2023-12-09T06:14:30.714Z,98529.88
2023-12-09T06:16:58.208Z,98532.53
2023-12-09T06:19:25.554Z,98524.59
2023-12-09T06:21:52.641Z,98529.88
2023-12-09T06:24:20.013Z,98535.16
2023-12-09T06:26:47.165Z,98534.19
2023-12-09T06:29:15.609Z,98524.41
2023-12-09T06:31:42.865Z,98530.53
2023-12-09T06:34:10.578Z,98520.97
2023-12-09T06:36:37.864Z,98527.22
2023-12-09T06:39:05.713Z,98520.97
2023-12-09T06:41:33.408Z,98520.09
2023-12-09T06:44:00.709Z,98525.41
2023-12-09T06:46:27.865Z,98526.25
2023-12-09T06:48:55.524Z,98536.00
2023-12-09T06:51:22.891Z,98540.47
2023-12-09T06:53:50.471Z,98535.16
2023-12-09T06:56:21.452Z,98541.28
2023-12-09T06:58:49.252Z,98530.88
2023-12-09T07:01:34.573Z,98530.88
2023-12-09T07:04:02.113Z,98531.72
2023-12-09T07:06:30.628Z,98529.88
2023-12-09T07:08:58.550Z,98525.41
2023-12-09T07:11:25.895Z,98525.41
2023-12-09T07:13:53.263Z,98515.81
2023-12-09T07:16:20.440Z,98515.00
2023-12-09T07:18:48.607Z,98520.97
2023-12-09T07:21:16.808Z,98519.28
2023-12-09T07:23:44.817Z,98517.66
2023-12-09T07:26:13.268Z,98516.63
2023-12-09T07:28:40.699Z,98515.66
2023-12-09T07:31:07.792Z,98517.66
2023-12-09T07:33:35.621Z,98518.31
2023-12-09T07:36:03.003Z,98516.63
2023-12-09T07:38:30.413Z,98517.66
2023-12-09T07:40:57.612Z,98523.75
2023-12-09T07:43:24.931Z,98520.97
2023-12-09T07:45:52.697Z,98521.78
2023-12-09T07:48:20.183Z,98519.94
2023-12-09T07:50:47.350Z,98520.28
2023-12-09T07:53:14.738Z,98531.53
2023-12-09T07:55:41.826Z,98529.88
2023-12-09T07:58:09.146Z,98533.34
2023-12-09T08:00:36.499Z,98528.25
2023-12-09T08:03:04.798Z,98522.94
2023-12-09T08:05:33.083Z,98529.88
2023-12-09T08:08:00.481Z,98524.59
2023-12-09T08:10:27.659Z,98516.81
2023-12-09T08:12:54.994Z,98528.41
2023-12-09T08:15:22.126Z,98526.56
2023-12-09T08:17:49.631Z,98516.81
2023-12-09T08:20:17.673Z,98527.41
2023-12-09T08:22:45.061Z,98526.56
2023-12-09T08:25:12.150Z,98529.06
2023-12-09T08:27:39.626Z,98529.06
2023-12-09T08:30:11.472Z,98521.94
2023-12-09T08:32:42.943Z,98521.94
2023-12-09T08:35:10.867Z,98531.53
2023-12-09T08:37:39.575Z,98532.34
2023-12-09T08:40:12.090Z,98537.66
2023-12-09T08:42:43.714Z,98542.13
2023-12-09T08:45:12.093Z,98535.16
2023-12-09T08:47:42.716Z,98536.84
2023-12-09T08:50:21.988Z,98531.53
2023-12-09T08:52:54.518Z,98531.53
2023-12-09T08:55:22.502Z,98536.47
2023-12-09T08:57:50.536Z,98541.78
2023-12-09T09:00:21.922Z,98526.72
2023-12-09T09:02:49.987Z,98525.88
2023-12-09T09:05:17.629Z,98520.59
2023-12-09T09:07:45.613Z,98521.41
2023-12-09T09:10:12.938Z,98519.59
2023-12-09T09:12:40.491Z,98519.41
2023-12-09T09:15:09.196Z,98510.66
2023-12-09T09:17:37.512Z,98518.59
2023-12-09T09:20:06.404Z,98514.28
2023-12-09T09:22:34.721Z,98508.00
2023-12-09T09:25:02.566Z,98509.66
2023-12-09T09:27:30.437Z,98515.78
2023-12-09T09:29:57.878Z,98520.25
2023-12-09T09:32:25.682Z,98507.66
2023-12-09T09:34:53.705Z,98506.84
2023-12-09T09:37:22.048Z,98507.47
2023-12-09T09:39:50.274Z,98502.69
2023-12-09T09:42:27.327Z,98507.31
2023-12-09T09:45:07.201Z,98500.19
2023-12-09T09:47:38.332Z,98503.00
2023-12-09T09:50:07.436Z,98503.19
2023-12-09T09:52:38.600Z,98497.91
2023-12-09T09:55:07.636Z,98501.19
2023-12-09T09:57:35.472Z,98495.06
2023-12-09T10:00:02.907Z,98491.44
2023-12-09T10:02:32.416Z,98486.13
2023-12-09T10:04:59.821Z,98485.78
2023-12-09T10:07:27.745Z,98491.06
2023-12-09T10:09:54.916Z,98490.75
2023-12-09T10:12:22.337Z,98485.44
2023-12-09T10:14:51.117Z,98485.44
2023-12-09T10:17:18.718Z,98478.97
2023-12-09T10:19:46.455Z,98481.41
2023-12-09T10:22:14.126Z,98474.50
2023-12-09T10:24:50.520Z,98468.84
2023-12-09T10:27:23.544Z,98459.91
2023-12-09T10:29:51.137Z,98460.56
2023-12-09T10:32:19.063Z,98460.19
2023-12-09T10:34:46.339Z,98457.53
2023-12-09T10:37:14.168Z,98462.50
2023-12-09T10:39:45.878Z,98465.81
2023-12-09T10:42:13.370Z,98456.84
2023-12-09T10:44:40.943Z,98453.81
2023-12-09T10:47:08.323Z,98459.78
2023-12-09T10:49:35.888Z,98458.78
2023-12-09T10:52:03.519Z,98454.94
2023-12-09T10:54:31.113Z,98452.13
2023-12-09T10:56:59.563Z,98446.47
2023-12-09T10:59:28.089Z,98443.66
2023-12-09T11:01:55.591Z,98441.81
2023-12-09T11:04:22.770Z,98448.78
2023-12-09T11:06:50.659Z,98443.28
2023-12-09T11:09:18.041Z,98448.59
2023-12-09T11:11:46.193Z,98435.16
2023-12-09T11:14:13.837Z,98437.44
2023-12-09T11:16:47.365Z,98434.63
2023-12-09T11:19:16.000Z,98443.06
2023-12-09T11:21:44.265Z,98440.06
2023-12-09T11:24:13.134Z,98441.72
2023-12-09T11:26:42.070Z,98441.72
2023-12-09T11:29:10.077Z,98436.44
2023-12-09T11:31:41.316Z,98432.75
2023-12-09T11:34:13.131Z,98433.41
2023-12-09T11:36:40.779Z,98430.59
2023-12-09T11:39:19.399Z,98425.28
2023-12-09T11:41:47.926Z,98425.09
2023-12-09T11:44:15.426Z,98426.09
2023-12-09T11:46:43.282Z,98418.78
2023-12-09T11:49:11.356Z,98414.97
2023-12-09T11:51:39.987Z,98423.56
2023-12-09T11:54:09.161Z,98404.19
2023-12-09T11:56:40.846Z,98410.31
2023-12-09T11:59:09.153Z,98405.16
2023-12-09T12:01:41.592Z,98411.94
2023-12-09T12:04:36.820Z,98404.81
2023-12-09T12:07:06.222Z,98409.09
2023-12-09T12:09:33.970Z,98407.09
2023-12-09T12:12:03.746Z,98402.44
2023-12-09T12:14:32.407Z,98402.63
2023-12-09T12:17:00.333Z,98396.34
2023-12-09T12:19:27.524Z,98388.38
2023-12-09T12:21:55.445Z,98395.13
2023-12-09T12:24:22.813Z,98391.47
2023-12-09T12:26:50.209Z,98391.13
2023-12-09T12:29:20.559Z,98393.78
2023-12-09T12:31:51.240Z,98388.47
2023-12-09T12:34:19.302Z,98391.13
2023-12-09T12:36:48.185Z,98386.47
2023-12-09T12:39:16.174Z,98377.88
2023-12-09T12:41:43.627Z,98373.19
2023-12-09T12:44:12.110Z,98370.19
2023-12-09T12:46:39.624Z,98374.84
2023-12-09T12:49:06.897Z,98375.84
2023-12-09T12:51:34.554Z,98369.53
2023-12-09T12:54:02.033Z,98363.59
2023-12-09T12:56:30.028Z,98368.53
2023-12-09T12:58:57.649Z,98361.41
2023-12-09T13:01:25.448Z,98362.22
2023-12-09T13:03:52.748Z,98361.22
2023-12-09T13:06:20.362Z,98357.72
2023-12-09T13:08:47.725Z,98352.25
2023-12-09T13:11:15.147Z,98346.97
2023-12-09T13:13:42.248Z,98341.31
2023-12-09T13:16:10.025Z,98341.31
2023-12-09T13:18:37.252Z,98339.28
2023-12-09T13:21:05.152Z,98340.28
2023-12-09T13:23:32.889Z,98344.59
2023-12-09T13:26:01.232Z,98341.31
2023-12-09T13:28:28.767Z,98343.75
2023-12-09T13:30:56.457Z,98339.09
2023-12-09T13:33:23.669Z,98346.41
2023-12-09T13:35:51.292Z,98339.28
2023-12-09T13:38:18.598Z,98338.44
2023-12-09T13:40:47.339Z,98336.00
2023-12-09T13:43:14.957Z,98331.50
2023-12-09T13:45:42.429Z,98331.50
2023-12-09T13:48:10.792Z,98329.69
2023-12-09T13:50:40.877Z,98338.44
2023-12-09T13:53:08.250Z,98328.69
2023-12-09T13:55:35.866Z,98326.22
2023-12-09T13:58:04.952Z,98320.09
2023-12-09T14:00:32.471Z,98328.69
2023-12-09T14:02:59.748Z,98322.53
2023-12-09T14:05:28.234Z,98329.03
2023-12-09T14:07:55.496Z,98328.03
2023-12-09T14:10:23.703Z,98326.22
2023-12-09T14:12:50.931Z,98318.44
2023-12-09T14:15:18.668Z,98316.78
2023-12-09T14:17:46.095Z,98319.44
2023-12-09T14:20:16.220Z,98324.53
2023-12-09T14:22:46.167Z,98314.97
2023-12-09T14:25:13.674Z,98310.66
2023-12-09T14:27:41.150Z,98311.50
2023-12-09T14:30:12.073Z,98309.84
2023-12-09T14:32:39.593Z,98312.47
2023-12-09T14:35:08.349Z,98310.66
2023-12-09T14:37:35.670Z,98302.50
2023-12-09T14:40:04.943Z,98299.88
2023-12-09T14:42:32.516Z,98295.19
2023-12-09T14:45:00.072Z,98301.53
2023-12-09T14:47:27.392Z,98286.44
2023-12-09T14:49:55.020Z,98286.25
2023-12-09T14:52:22.256Z,98286.25
2023-12-09T14:54:49.697Z,98278.91
2023-12-09T14:57:16.924Z,98277.75
2023-12-09T14:59:44.844Z,98272.44
2023-12-09T15:02:12.036Z,98272.44
2023-12-09T15:04:39.450Z,98267.13
2023-12-09T15:07:07.575Z,98267.78
2023-12-09T15:09:35.163Z,98262.63
2023-12-09T15:12:03.456Z,98271.25
2023-12-09T15:14:31.588Z,98265.94
2023-12-09T15:16:58.833Z,98263.63
2023-12-09T15:19:26.357Z,98258.97
2023-12-09T15:21:53.603Z,98264.28
2023-12-09T15:24:23.249Z,98256.53
2023-12-09T15:26:52.288Z,98258.97
2023-12-09T15:29:19.729Z,98262.63
2023-12-09T15:31:46.952Z,98250.19
2023-12-09T15:34:14.753Z,98257.34
2023-12-09T15:36:41.990Z,98252.03
2023-12-09T15:39:09.378Z,98243.44
2023-12-09T15:41:36.686Z,98240.78
2023-12-09T15:44:04.275Z,98247.94
2023-12-09T15:46:31.525Z,98239.75
2023-12-09T15:49:01.261Z,98238.13
2023-12-09T15:51:28.771Z,98236.13
2023-12-09T15:53:56.206Z,98233.66
2023-12-09T15:56:23.748Z,98230.81
2023-12-09T15:58:51.463Z,98220.22
2023-12-09T16:01:18.695Z,98217.56
2023-12-09T16:03:46.155Z,98220.22
2023-12-09T16:06:13.505Z,98218.38
2023-12-09T16:08:40.991Z,98215.91
2023-12-09T16:11:08.100Z,98213.25
2023-12-09T16:13:35.565Z,98202.63
2023-12-09T16:16:02.843Z,98209.97
2023-12-09T16:18:31.348Z,98207.94
2023-12-09T16:20:59.511Z,98211.63
2023-12-09T16:23:27.896Z,98216.53
2023-12-09T16:25:54.961Z,98205.94
2023-12-09T16:28:22.536Z,98197.97
2023-12-09T16:30:49.722Z,98206.78
2023-12-09T16:33:17.292Z,98207.59
2023-12-09T16:35:44.506Z,98207.59
2023-12-09T16:38:11.981Z,98189.66
2023-12-09T16:40:39.121Z,98199.44
2023-12-09T16:43:06.581Z,98191.09
2023-12-09T16:45:33.906Z,98190.28
2023-12-09T16:48:01.605Z,98190.09
2023-12-09T16:50:29.123Z,98186.63
2023-12-09T16:52:56.489Z,98190.94
2023-12-09T16:55:24.024Z,98180.94
2023-12-09T16:57:51.516Z,98195.84
2023-12-09T17:00:19.056Z,98200.16
2023-12-09T17:02:46.456Z,98193.00
2023-12-09T17:05:13.707Z,98183.22
2023-12-09T17:07:41.226Z,98177.91
2023-12-09T17:10:09.201Z,98168.13
2023-12-09T17:12:37.867Z,98156.69
2023-12-09T17:15:05.218Z,98156.69
2023-12-09T17:17:32.629Z,98146.72
2023-12-09T17:19:59.793Z,98150.19
2023-12-09T17:22:32.141Z,98134.09
2023-12-09T17:24:59.557Z,98130.97
2023-12-09T17:27:27.397Z,98125.69
2023-12-09T17:29:54.785Z,98118.16
2023-12-09T17:32:22.282Z,98126.31
2023-12-09T17:34:49.727Z,98117.53
2023-12-09T17:37:17.352Z,98115.88
2023-12-09T17:39:44.544Z,98120.19
2023-12-09T17:42:12.060Z,98119.56
2023-12-09T17:44:40.016Z,98117.53
2023-12-09T17:47:07.909Z,98113.44
2023-12-09T17:49:35.285Z,98106.28
2023-12-09T17:52:03.147Z,98098.34
2023-12-09T17:54:30.522Z,98112.63
2023-12-09T17:56:57.930Z,98111.78
2023-12-09T17:59:25.396Z,98117.28
2023-12-09T18:01:52.822Z,98104.41
2023-12-09T18:04:20.468Z,98091.75
2023-12-09T18:06:48.017Z,98090.13
2023-12-09T18:09:15.467Z,98083.34
2023-12-09T18:11:42.890Z,98078.91
2023-12-09T18:14:10.081Z,98079.91
2023-12-09T18:16:37.490Z,98079.09
2023-12-09T18:19:05.305Z,98081.56
2023-12-09T18:21:32.906Z,98078.91
2023-12-09T18:24:00.313Z,98060.34
2023-12-09T18:26:27.735Z,98055.84
2023-12-09T18:28:54.927Z,98055.84
2023-12-09T18:31:23.312Z,98041.13
2023-12-09T18:33:50.691Z,98051.34
2023-12-09T18:36:18.245Z,98048.06
2023-12-09T18:38:45.401Z,98054.41
2023-12-09T18:41:12.782Z,98055.03
2023-12-09T18:43:40.337Z,98031.16
2023-12-09T18:46:07.822Z,98028.50
2023-12-09T18:48:35.053Z,98024.41
2023-12-09T18:51:04.363Z,98022.75
2023-12-09T18:53:31.568Z,98014.63
2023-12-09T18:55:59.700Z,98001.38
2023-12-09T18:58:27.770Z,98000.72
2023-12-09T19:01:04.538Z,97994.41
2023-12-09T19:03:35.092Z,97986.44
2023-12-09T19:06:02.626Z,97979.50
2023-12-09T19:08:29.791Z,97979.50
2023-12-09T19:10:58.088Z,97975.22
2023-12-09T19:13:25.335Z,97975.41
2023-12-09T19:15:53.065Z,97979.50
2023-12-09T19:18:21.400Z,97964.59
2023-12-09T19:20:48.844Z,97966.25
2023-12-09T19:23:15.972Z,97963.78
2023-12-09T19:25:43.441Z,97983.16
2023-12-09T19:28:10.957Z,97965.63
2023-12-09T19:30:38.353Z,97969.91
2023-12-09T19:33:05.718Z,97964.81
2023-12-09T19:35:33.472Z,97958.66
2023-12-09T19:38:00.613Z,97951.56
2023-12-09T19:40:28.035Z,97948.06
2023-12-09T19:42:57.598Z,97947.06
2023-12-09T19:45:28.472Z,97935.84
2023-12-09T19:47:59.958Z,97932.78
2023-12-09T19:50:27.743Z,97937.09
2023-12-09T19:52:55.345Z,97928.94
2023-12-09T19:55:22.822Z,97915.88
2023-12-09T19:57:49.957Z,97919.16
2023-12-09T20:00:17.519Z,97922.78
2023-12-09T20:02:47.642Z,97910.16
2023-12-09T20:05:15.635Z,97899.56
2023-12-09T20:07:43.128Z,97888.94
2023-12-09T20:10:11.545Z,97888.31
2023-12-09T20:12:38.821Z,97887.31
2023-12-09T20:15:07.512Z,97889.34
2023-12-09T20:17:35.257Z,97887.69
2023-12-09T20:20:03.194Z,97868.75
2023-12-09T20:22:30.639Z,97866.09
2023-12-09T20:24:58.323Z,97864.47
2023-12-09T20:27:25.573Z,97856.31
2023-12-09T20:29:55.250Z,97859.16
2023-12-09T20:32:22.904Z,97850.19
2023-12-09T20:34:50.812Z,97843.25
2023-12-09T20:37:18.133Z,97843.25
2023-12-09T20:39:45.730Z,97848.53
2023-12-09T20:42:13.256Z,97840.59
2023-12-09T20:44:41.400Z,97843.25
2023-12-09T20:47:08.598Z,97832.44
2023-12-09T20:49:36.389Z,97823.69
2023-12-09T20:52:03.590Z,97820.41
2023-12-09T20:54:31.070Z,97814.06
2023-12-09T20:56:58.234Z,97815.09
2023-12-09T20:59:25.689Z,97824.06
2023-12-09T21:01:55.413Z,97824.06
2023-12-09T21:04:24.278Z,97821.22
2023-12-09T21:06:51.706Z,97816.09
2023-12-09T21:09:19.216Z,97802.84
2023-12-09T21:11:46.444Z,97811.81
2023-12-09T21:14:14.049Z,97808.97
2023-12-09T21:16:41.223Z,97797.53
2023-12-09T21:19:08.785Z,97801.22
2023-12-09T21:21:36.166Z,97784.50
2023-12-09T21:24:03.611Z,97779.38
2023-12-09T21:26:30.751Z,97770.41
2023-12-09T21:28:58.186Z,97773.06
2023-12-09T21:31:26.952Z,97757.97
2023-12-09T21:33:54.448Z,97767.75
2023-12-09T21:36:21.641Z,97766.13
2023-12-09T21:38:49.041Z,97774.06
2023-12-09T21:41:20.208Z,97771.44
2023-12-09T21:43:48.385Z,97775.06
2023-12-09T21:46:33.891Z,97780.38
2023-12-09T21:49:01.485Z,97773.28
2023-12-09T21:51:29.428Z,97774.06
2023-12-09T21:53:56.995Z,97771.44
2023-12-09T21:56:25.002Z,97761.00
2023-12-09T21:58:53.075Z,97762.84
2023-12-09T22:01:21.095Z,97756.50
2023-12-09T22:03:49.235Z,97760.19
2023-12-09T22:06:16.790Z,97753.06
2023-12-09T22:08:44.505Z,97737.97
2023-12-09T22:11:12.506Z,97720.44
2023-12-09T22:13:40.459Z,97712.47
2023-12-09T22:16:07.918Z,97693.91
2023-12-09T22:18:36.182Z,97685.34
2023-12-09T22:21:03.495Z,97693.91
2023-12-09T22:23:30.914Z,97692.66
2023-12-09T22:25:57.993Z,97696.13
2023-12-09T22:28:26.836Z,97703.28
2023-12-09T22:30:53.985Z,97710.22
2023-12-09T22:33:21.689Z,97711.84
2023-12-09T22:35:48.915Z,97711.22
2023-12-09T22:38:16.326Z,97700.63
2023-12-09T22:40:44.304Z,97703.09
2023-12-09T22:43:12.529Z,97699.63
2023-12-09T22:45:39.645Z,97689.03
2023-12-09T22:48:07.295Z,97677.38
2023-12-09T22:50:34.893Z,97673.13
2023-12-09T22:53:02.290Z,97686.56
2023-12-09T22:55:29.379Z,97689.03
2023-12-09T22:57:56.902Z,97691.88
2023-12-09T23:00:34.109Z,97680.44
2023-12-09T23:03:02.656Z,97682.06
2023-12-09T23:05:30.113Z,97675.94
2023-12-09T23:07:57.534Z,97682.06
2023-12-09T23:10:24.789Z,97666.16
2023-12-09T23:12:52.366Z,97663.69
2023-12-09T23:15:20.113Z,97660.03
2023-12-09T23:17:47.772Z,97658.22
2023-12-09T23:20:16.016Z,97656.59
2023-12-09T23:22:43.816Z,97651.28
2023-12-09T23:25:11.064Z,97651.28
2023-12-09T23:27:38.488Z,97653.09
2023-12-09T23:30:06.008Z,97643.31
2023-12-09T23:32:34.177Z,97640.88
2023-12-09T23:35:01.467Z,97628.63
2023-12-09T23:37:28.973Z,97624.16
2023-12-09T23:39:56.137Z,97620.47
2023-12-09T23:42:23.806Z,97603.94
2023-12-09T23:44:50.954Z,97605.59
2023-12-09T23:47:18.331Z,97607.22
2023-12-09T23:49:45.555Z,97606.41
2023-12-09T23:52:13.079Z,97602.94
2023-12-09T23:54:40.240Z,97606.59
2023-12-09T23:57:08.683Z,97598.66
2023-12-09T23:59:35.786Z,97606.59
